createdAt,value
2017-07-11T00:01:52.330Z,21.60
2017-07-11T00:04:20.403Z,21.60
2017-07-11T00:06:48.476Z,21.60
2017-07-11T00:09:16.546Z,21.60
2017-07-11T00:11:44.867Z,21.50
2017-07-11T00:14:13.723Z,21.60
2017-07-11T00:16:41.811Z,21.50
2017-07-11T00:19:09.880Z,21.50
2017-07-11T00:21:37.949Z,21.50
2017-07-11T00:24:06.026Z,21.60
2017-07-11T00:26:34.100Z,21.60
2017-07-11T00:29:02.183Z,21.50
2017-07-11T00:31:30.254Z,21.50
2017-07-11T00:33:58.327Z,21.50
2017-07-11T00:36:26.415Z,21.50
2017-07-11T00:38:54.480Z,21.50
2017-07-11T00:41:22.543Z,21.50
2017-07-11T00:43:50.619Z,21.50
2017-07-11T00:46:18.691Z,21.50
2017-07-11T00:48:46.780Z,21.40
2017-07-11T00:51:14.849Z,21.40
2017-07-11T00:53:42.915Z,21.40
2017-07-11T00:56:10.979Z,21.40
2017-07-11T00:58:39.050Z,21.30
2017-07-11T01:01:07.123Z,21.40
2017-07-11T01:03:35.183Z,21.30
2017-07-11T01:06:03.254Z,21.30
2017-07-11T01:08:31.323Z,21.30
2017-07-11T01:11:00.414Z,21.30
2017-07-11T01:13:28.488Z,21.30
2017-07-11T01:15:56.565Z,21.20
2017-07-11T01:18:24.641Z,21.30
2017-07-11T01:20:52.724Z,21.20
2017-07-11T01:23:20.803Z,21.20
2017-07-11T01:25:48.891Z,21.10
2017-07-11T01:28:17.763Z,21.00
2017-07-11T01:30:45.857Z,21.00
2017-07-11T01:33:13.923Z,20.90
2017-07-11T01:35:42.759Z,20.80
2017-07-11T01:38:10.835Z,20.70
2017-07-11T01:40:38.925Z,20.80
2017-07-11T01:43:07.086Z,20.70
2017-07-11T01:45:35.168Z,20.70
2017-07-11T01:48:03.256Z,20.70
2017-07-11T01:50:31.324Z,20.70
2017-07-11T01:52:59.404Z,20.60
2017-07-11T01:55:27.468Z,20.50
2017-07-11T01:57:55.537Z,20.50
2017-07-11T02:00:23.606Z,20.50
2017-07-11T02:02:51.696Z,20.50
2017-07-11T02:05:19.763Z,20.50
2017-07-11T02:07:47.827Z,20.50
2017-07-11T02:10:15.900Z,20.50
2017-07-11T02:12:43.989Z,20.50
2017-07-11T02:15:12.076Z,20.50
2017-07-11T02:17:40.928Z,20.40
2017-07-11T02:20:09.006Z,20.40
2017-07-11T02:22:37.999Z,20.40
2017-07-11T02:25:06.071Z,20.40
2017-07-11T02:27:34.143Z,20.30
2017-07-11T02:30:02.229Z,20.30
2017-07-11T02:32:30.315Z,20.30
2017-07-11T02:34:58.413Z,20.20
2017-07-11T02:37:26.474Z,20.20
2017-07-11T02:39:56.026Z,20.10
2017-07-11T02:42:24.845Z,20.10
2017-07-11T02:44:52.911Z,20.10
2017-07-11T02:47:20.996Z,20.00
2017-07-11T02:49:49.055Z,20.00
2017-07-11T02:52:18.051Z,20.00
2017-07-11T02:54:46.114Z,20.00
2017-07-11T02:57:14.192Z,20.00
2017-07-11T02:59:42.267Z,20.00
2017-07-11T03:02:10.339Z,19.90
2017-07-11T03:04:38.399Z,19.90
2017-07-11T03:07:06.474Z,19.80
2017-07-11T03:09:34.576Z,19.80
2017-07-11T03:12:02.658Z,19.80
2017-07-11T03:14:31.498Z,19.80
2017-07-11T03:16:59.580Z,19.80
2017-07-11T03:19:27.651Z,19.80
2017-07-11T03:21:55.723Z,19.70
2017-07-11T03:24:23.811Z,19.70
2017-07-11T03:26:51.871Z,19.70
2017-07-11T03:29:20.065Z,19.70
2017-07-11T03:31:48.150Z,19.70
2017-07-11T03:34:16.996Z,19.70
2017-07-11T03:36:45.091Z,19.70
2017-07-11T03:39:13.182Z,19.70
2017-07-11T03:41:41.302Z,19.70
2017-07-11T03:44:09.375Z,19.80
2017-07-11T03:46:37.444Z,19.80
2017-07-11T03:49:05.511Z,19.80
2017-07-11T03:51:33.588Z,19.80
2017-07-11T03:54:01.693Z,19.80
2017-07-11T03:56:29.772Z,19.80
2017-07-11T03:58:57.842Z,19.80
2017-07-11T04:01:25.920Z,19.70
2017-07-11T04:03:53.988Z,19.80
2017-07-11T04:06:22.063Z,19.80
2017-07-11T04:08:50.136Z,19.80
2017-07-11T04:11:18.207Z,19.80
2017-07-11T04:13:46.313Z,19.80
2017-07-11T04:16:14.387Z,19.80
2017-07-11T04:18:42.744Z,19.80
2017-07-11T04:21:10.824Z,19.80
2017-07-11T04:23:38.888Z,19.80
2017-07-11T04:26:06.948Z,19.80
2017-07-11T04:28:35.023Z,19.90
2017-07-11T04:31:03.091Z,19.90
2017-07-11T04:33:31.168Z,20.00
2017-07-11T04:35:59.232Z,19.90
2017-07-11T04:38:27.313Z,19.90
2017-07-11T04:40:55.383Z,19.90
2017-07-11T04:43:23.452Z,19.90
2017-07-11T04:45:51.523Z,19.80
2017-07-11T04:48:19.607Z,19.80
2017-07-11T04:50:47.688Z,19.80
2017-07-11T04:53:16.540Z,19.70
2017-07-11T04:55:44.634Z,19.70
2017-07-11T04:58:12.699Z,19.70
2017-07-11T05:00:40.801Z,19.70
2017-07-11T05:03:09.636Z,19.60
2017-07-11T05:05:37.724Z,19.60
2017-07-11T05:08:05.796Z,19.60
2017-07-11T05:10:33.867Z,19.60
2017-07-11T05:13:02.043Z,19.60
2017-07-11T05:15:30.120Z,19.50
2017-07-11T05:17:58.192Z,19.50
2017-07-11T05:20:26.263Z,19.50
2017-07-11T05:22:54.331Z,19.60
2017-07-11T05:25:22.451Z,19.60
2017-07-11T05:27:51.288Z,19.60
2017-07-11T05:30:19.368Z,19.60
2017-07-11T05:32:47.448Z,19.60
2017-07-11T05:35:15.528Z,19.60
2017-07-11T05:37:43.599Z,19.60
2017-07-11T05:40:11.679Z,19.60
2017-07-11T05:42:39.745Z,19.50
2017-07-11T05:45:07.811Z,19.50
2017-07-11T05:47:35.913Z,19.50
2017-07-11T05:50:04.770Z,19.50
2017-07-11T05:52:32.848Z,19.50
2017-07-11T05:55:00.911Z,19.50
2017-07-11T05:57:28.983Z,19.50
2017-07-11T05:59:57.056Z,19.50
2017-07-11T06:02:25.143Z,19.50
2017-07-11T06:04:53.202Z,19.50
2017-07-11T06:07:21.272Z,19.50
2017-07-11T06:09:49.343Z,19.50
2017-07-11T06:12:18.368Z,19.60
2017-07-11T06:14:46.439Z,19.60
2017-07-11T06:17:14.500Z,19.50
2017-07-11T06:19:42.571Z,19.50
2017-07-11T06:22:10.635Z,19.50
2017-07-11T06:24:38.714Z,19.50
2017-07-11T06:27:07.097Z,19.50
2017-07-11T06:29:35.185Z,19.40
2017-07-11T06:32:04.041Z,19.40
2017-07-11T06:34:32.984Z,19.30
2017-07-11T06:37:01.056Z,19.30
2017-07-11T06:39:29.127Z,19.20
2017-07-11T06:41:57.217Z,19.10
2017-07-11T06:44:25.286Z,19.10
2017-07-11T06:46:53.355Z,19.10
2017-07-11T06:49:21.423Z,19.10
2017-07-11T06:51:49.503Z,19.20
2017-07-11T06:54:17.567Z,19.20
2017-07-11T06:56:45.640Z,19.10
2017-07-11T06:59:13.705Z,19.20
2017-07-11T07:01:42.557Z,19.20
2017-07-11T07:04:10.636Z,19.20
2017-07-11T07:06:38.723Z,19.20
2017-07-11T07:09:07.565Z,19.30
2017-07-11T07:11:35.655Z,19.30
2017-07-11T07:14:03.735Z,19.40
2017-07-11T07:16:31.799Z,19.40
2017-07-11T07:18:59.884Z,19.40
2017-07-11T07:21:27.943Z,19.40
2017-07-11T07:23:56.018Z,19.50
2017-07-11T07:26:24.491Z,19.50
2017-07-11T07:28:52.559Z,19.50
2017-07-11T07:31:20.636Z,19.50
2017-07-11T07:33:48.734Z,19.50
2017-07-11T07:36:16.797Z,19.50
2017-07-11T07:38:44.860Z,19.40
2017-07-11T07:41:12.932Z,19.40
2017-07-11T07:43:41.016Z,19.50
2017-07-11T07:46:09.091Z,19.60
2017-07-11T07:48:37.159Z,19.70
2017-07-11T07:51:05.260Z,19.70
2017-07-11T07:53:34.092Z,19.70
2017-07-11T07:56:02.159Z,19.70
2017-07-11T07:58:30.214Z,19.70
2017-07-11T08:00:58.290Z,19.70
2017-07-11T08:03:26.379Z,19.70
2017-07-11T08:05:54.448Z,19.70
2017-07-11T08:08:22.519Z,19.70
2017-07-11T08:10:50.598Z,19.70
2017-07-11T08:13:18.675Z,19.70
2017-07-11T08:15:46.739Z,19.70
2017-07-11T08:18:14.822Z,19.70
2017-07-11T08:20:42.909Z,19.70
2017-07-11T08:23:10.994Z,19.80
2017-07-11T08:25:39.052Z,19.90
2017-07-11T08:28:07.124Z,19.90
2017-07-11T08:30:35.187Z,19.90
2017-07-11T08:33:03.275Z,20.00
2017-07-11T08:35:31.336Z,20.00
2017-07-11T08:37:59.419Z,20.00
2017-07-11T08:40:27.479Z,20.10
2017-07-11T08:42:55.548Z,20.10
2017-07-11T08:45:23.629Z,20.10
2017-07-11T08:47:51.756Z,20.20
2017-07-11T08:50:20.592Z,20.40
2017-07-11T08:52:48.663Z,20.40
2017-07-11T08:55:16.737Z,20.50
2017-07-11T08:57:44.876Z,20.60
2017-07-11T09:00:12.962Z,20.70
2017-07-11T09:02:41.020Z,20.70
2017-07-11T09:05:09.098Z,20.80
2017-07-11T09:07:37.167Z,20.80
2017-07-11T09:10:05.261Z,20.70
2017-07-11T09:12:33.327Z,20.60
2017-07-11T09:15:01.406Z,20.50
2017-07-11T09:17:29.487Z,20.40
2017-07-11T09:19:57.561Z,20.30
2017-07-11T09:22:25.643Z,20.20
2017-07-11T09:24:53.695Z,20.10
2017-07-11T09:27:21.788Z,20.10
2017-07-11T09:29:50.055Z,20.10
2017-07-11T09:32:18.125Z,20.20
2017-07-11T09:34:46.197Z,20.20
2017-07-11T09:37:14.267Z,20.20
2017-07-11T09:39:42.343Z,20.30
2017-07-11T09:42:10.411Z,20.40
2017-07-11T09:44:38.482Z,20.40
2017-07-11T09:47:06.577Z,20.50
2017-07-11T09:49:34.648Z,20.60
2017-07-11T09:52:02.719Z,20.70
2017-07-11T09:54:30.802Z,20.70
2017-07-11T09:56:58.864Z,20.80
2017-07-11T09:59:26.947Z,20.90
2017-07-11T10:01:55.012Z,20.90
2017-07-11T10:04:23.083Z,20.90
2017-07-11T10:06:51.151Z,20.90
2017-07-11T10:09:19.228Z,20.90
2017-07-11T10:11:47.327Z,20.80
2017-07-11T10:14:16.172Z,20.80
2017-07-11T10:16:44.242Z,20.70
2017-07-11T10:19:12.329Z,20.70
2017-07-11T10:21:40.392Z,20.70
2017-07-11T10:24:08.463Z,20.70
2017-07-11T10:26:36.531Z,20.70
2017-07-11T10:29:04.630Z,20.70
2017-07-11T10:31:32.716Z,20.70
2017-07-11T10:34:01.552Z,20.70
2017-07-11T10:36:29.622Z,20.70
2017-07-11T10:38:57.697Z,20.70
2017-07-11T10:41:25.776Z,20.80
2017-07-11T10:43:53.841Z,20.80
2017-07-11T10:46:21.914Z,20.80
2017-07-11T10:48:49.980Z,20.80
2017-07-11T10:51:18.308Z,20.90
2017-07-11T10:53:46.407Z,20.80
2017-07-11T10:56:14.476Z,21.00
2017-07-11T10:58:42.544Z,21.00
2017-07-11T11:01:11.406Z,21.20
2017-07-11T11:03:39.479Z,21.20
2017-07-11T11:06:07.552Z,21.30
2017-07-11T11:08:35.621Z,21.30
2017-07-11T11:11:03.696Z,21.30
2017-07-11T11:13:31.767Z,21.40
2017-07-11T11:15:59.848Z,21.40
2017-07-11T11:18:27.927Z,21.50
2017-07-11T11:20:56.759Z,21.70
2017-07-11T11:23:24.835Z,21.70
2017-07-11T11:25:52.931Z,21.70
2017-07-11T11:28:21.041Z,21.80
2017-07-11T11:30:50.015Z,21.90
2017-07-11T11:33:18.091Z,21.90
2017-07-11T11:35:46.151Z,21.90
2017-07-11T11:38:14.245Z,22.00
2017-07-11T11:40:43.079Z,22.10
2017-07-11T11:43:11.151Z,22.10
2017-07-11T11:45:39.223Z,22.20
2017-07-11T11:48:07.295Z,22.20
2017-07-11T11:50:35.372Z,22.30
2017-07-11T11:53:03.438Z,22.50
2017-07-11T11:55:31.516Z,22.50
2017-07-11T11:57:59.589Z,22.50
2017-07-11T12:00:27.678Z,22.50
2017-07-11T12:02:55.737Z,22.60
2017-07-11T12:05:23.859Z,22.60
2017-07-11T12:07:52.696Z,22.70
2017-07-11T12:10:20.780Z,22.70
2017-07-11T12:12:48.860Z,22.70
2017-07-11T12:15:16.942Z,22.60
2017-07-11T12:17:45.007Z,22.60
2017-07-11T12:20:13.092Z,22.60
2017-07-11T12:22:41.150Z,22.70
2017-07-11T12:25:09.220Z,22.70
2017-07-11T12:27:37.328Z,22.80
2017-07-11T12:30:06.163Z,22.90
2017-07-11T12:32:34.247Z,22.90
2017-07-11T12:35:02.307Z,22.90
2017-07-11T12:37:30.380Z,23.00
2017-07-11T12:39:58.460Z,23.00
2017-07-11T12:42:26.549Z,23.10
2017-07-11T12:44:54.629Z,23.10
2017-07-11T12:47:22.692Z,23.20
2017-07-11T12:49:50.763Z,23.20
2017-07-11T12:52:18.826Z,23.20
2017-07-11T12:54:46.908Z,23.20
2017-07-11T12:57:14.976Z,23.20
2017-07-11T12:59:43.053Z,23.30
2017-07-11T13:02:11.123Z,23.40
2017-07-11T13:04:39.200Z,23.50
2017-07-11T13:07:07.267Z,23.50
2017-07-11T13:09:35.348Z,23.60
2017-07-11T13:12:03.408Z,23.60
2017-07-11T13:14:31.487Z,23.70
2017-07-11T13:16:59.558Z,23.70
2017-07-11T13:19:27.632Z,23.80
2017-07-11T13:21:55.691Z,23.80
2017-07-11T13:24:23.764Z,23.90
2017-07-11T13:26:51.848Z,23.90
2017-07-11T13:29:19.915Z,24.00
2017-07-11T13:31:47.991Z,24.10
2017-07-11T13:34:16.058Z,24.10
2017-07-11T13:36:44.139Z,24.00
2017-07-11T13:39:12.208Z,24.00
2017-07-11T13:41:40.285Z,24.10
2017-07-11T13:44:08.432Z,24.10
2017-07-11T13:46:36.518Z,24.10
2017-07-11T13:49:04.616Z,24.10
2017-07-11T13:51:32.688Z,24.20
2017-07-11T13:54:00.758Z,24.20
2017-07-11T13:56:28.842Z,24.20
2017-07-11T13:58:56.916Z,24.30
2017-07-11T14:01:24.979Z,24.40
2017-07-11T14:03:53.052Z,24.50
2017-07-11T14:06:21.125Z,24.50
2017-07-11T14:08:49.616Z,24.50
2017-07-11T14:11:18.461Z,24.50
2017-07-11T14:13:46.540Z,24.50
2017-07-11T14:16:14.602Z,24.50
2017-07-11T14:18:42.680Z,24.50
2017-07-11T14:21:10.740Z,24.50
2017-07-11T14:23:38.816Z,24.40
2017-07-11T14:26:06.888Z,24.40
2017-07-11T14:28:34.984Z,24.30
2017-07-11T14:31:03.053Z,24.30
2017-07-11T14:33:31.127Z,24.30
2017-07-11T14:35:59.204Z,24.30
2017-07-11T14:38:27.282Z,24.30
2017-07-11T14:40:55.355Z,24.30
2017-07-11T14:43:23.432Z,24.40
2017-07-11T14:45:51.509Z,24.40
2017-07-11T14:48:19.589Z,24.30
2017-07-11T14:50:47.659Z,24.30
2017-07-11T14:53:15.723Z,24.30
2017-07-11T14:55:43.803Z,24.30
2017-07-11T14:58:11.868Z,24.30
2017-07-11T15:00:39.941Z,24.40
2017-07-11T15:03:08.016Z,24.40
2017-07-11T15:05:36.096Z,24.30
2017-07-11T15:08:04.932Z,24.30
2017-07-11T15:10:33.019Z,24.30
2017-07-11T15:13:01.111Z,24.30
2017-07-11T15:15:29.188Z,24.30
2017-07-11T15:17:57.260Z,24.30
2017-07-11T15:20:25.325Z,24.30
2017-07-11T15:22:53.410Z,24.30
2017-07-11T15:25:21.477Z,24.30
2017-07-11T15:27:49.546Z,24.30
2017-07-11T15:30:17.606Z,24.30
2017-07-11T15:32:45.677Z,24.20
2017-07-11T15:35:13.757Z,24.20
2017-07-11T15:37:41.835Z,24.10
2017-07-11T15:40:09.907Z,24.10
2017-07-11T15:42:37.987Z,24.10
2017-07-11T15:45:06.055Z,24.10
2017-07-11T15:47:34.127Z,24.10
2017-07-11T15:50:02.210Z,24.00
2017-07-11T15:52:31.052Z,23.90
2017-07-11T15:54:59.231Z,23.90
2017-07-11T15:57:27.303Z,23.80
2017-07-11T15:59:55.447Z,23.80
2017-07-11T16:02:23.513Z,23.80
2017-07-11T16:04:53.564Z,23.80
2017-07-11T16:07:21.640Z,23.80
2017-07-11T16:09:49.712Z,23.80
2017-07-11T16:12:17.778Z,23.80
2017-07-11T16:14:45.856Z,23.80
2017-07-11T16:17:13.928Z,23.70
2017-07-11T16:19:42.000Z,23.70
2017-07-11T16:22:10.079Z,23.70
2017-07-11T16:24:38.148Z,23.70
2017-07-11T16:27:06.231Z,23.70
2017-07-11T16:47:59.851Z,23.70
2017-07-11T16:50:27.925Z,23.70
2017-07-11T16:52:55.998Z,23.70
2017-07-11T16:55:24.070Z,23.70
2017-07-11T16:57:52.140Z,23.70
2017-07-11T17:00:20.228Z,23.70
2017-07-11T17:02:48.287Z,23.70
2017-07-11T17:05:16.361Z,23.60
2017-07-11T17:07:44.441Z,23.60
2017-07-11T17:10:13.295Z,23.60
2017-07-11T17:12:41.374Z,23.60
2017-07-11T17:15:09.459Z,23.60
2017-07-11T17:17:37.539Z,23.60
2017-07-11T17:20:05.639Z,23.60
2017-07-11T17:22:33.712Z,23.60
2017-07-11T17:25:01.818Z,23.60
2017-07-11T17:27:29.963Z,23.70
2017-07-11T17:29:58.003Z,23.60
2017-07-11T17:32:26.095Z,23.60
2017-07-11T17:34:54.180Z,23.70
2017-07-11T17:37:22.293Z,23.70
2017-07-11T17:39:50.379Z,23.60
2017-07-11T17:42:18.480Z,23.60
2017-07-11T17:44:47.327Z,23.60
2017-07-11T17:47:15.413Z,23.50
2017-07-11T17:49:43.484Z,23.50
2017-07-11T17:52:11.583Z,23.50
2017-07-11T17:54:40.431Z,23.50
2017-07-11T17:57:08.519Z,23.40
2017-07-11T17:59:36.610Z,23.40
2017-07-11T18:02:04.725Z,23.40
2017-07-11T18:04:32.816Z,23.40
2017-07-11T18:07:00.895Z,23.40
2017-07-11T18:09:29.420Z,23.30
2017-07-11T18:11:58.278Z,23.30
2017-07-11T18:14:26.378Z,23.30
2017-07-11T18:16:54.474Z,23.30
2017-07-11T18:19:22.948Z,23.30
2017-07-11T18:21:51.804Z,23.30
2017-07-11T18:24:19.893Z,23.30
2017-07-11T18:26:47.970Z,23.20
2017-07-11T18:29:16.841Z,23.20
2017-07-11T18:31:44.917Z,23.20
2017-07-11T18:34:13.053Z,23.20
2017-07-11T18:36:41.135Z,23.20
2017-07-11T18:39:09.237Z,23.20
2017-07-11T18:41:37.346Z,23.20
2017-07-11T18:44:05.449Z,23.20
2017-07-11T18:46:33.548Z,23.10
2017-07-11T18:49:01.643Z,23.10
2017-07-11T18:51:29.745Z,23.10
2017-07-11T18:53:57.820Z,23.10
2017-07-11T18:56:25.908Z,23.00
2017-07-11T18:58:54.038Z,23.00
2017-07-11T19:01:22.132Z,22.90
2017-07-11T19:03:50.227Z,22.80
2017-07-11T19:06:18.325Z,22.80
2017-07-11T19:08:46.411Z,22.70
2017-07-11T19:11:14.500Z,22.70
2017-07-11T19:13:42.577Z,22.70
2017-07-11T19:16:11.435Z,22.60
2017-07-11T19:18:39.510Z,22.60
2017-07-11T19:21:07.600Z,22.50
2017-07-11T19:23:35.686Z,22.50
2017-07-11T19:26:04.545Z,22.30
2017-07-11T19:28:32.634Z,22.30
2017-07-11T19:31:00.711Z,22.30
2017-07-11T19:33:28.798Z,22.20
2017-07-11T19:35:56.880Z,22.20
2017-07-11T19:38:25.469Z,22.20
2017-07-11T19:44:08.649Z,22.20
2017-07-11T19:46:36.864Z,22.10
2017-07-11T19:49:05.522Z,22.10
2017-07-11T19:51:33.730Z,22.10
2017-07-11T19:55:02.479Z,22.00
2017-07-11T19:58:01.307Z,22.00
2017-07-11T20:07:09.757Z,21.90
2017-07-11T20:19:03.973Z,21.70
2017-07-11T20:21:32.189Z,21.70
2017-07-11T20:24:00.259Z,21.60
2017-07-11T20:26:28.840Z,21.60
2017-07-11T20:28:56.980Z,21.60
2017-07-11T20:31:25.061Z,21.60
2017-07-11T20:33:53.130Z,21.50
2017-07-11T20:36:21.204Z,21.50
2017-07-11T20:38:49.416Z,21.40
2017-07-11T20:41:18.089Z,21.40
2017-07-11T20:43:46.189Z,21.40
2017-07-11T20:46:14.255Z,21.40
2017-07-11T20:48:42.336Z,21.30
2017-07-11T20:51:11.172Z,21.30
2017-07-11T20:53:39.256Z,21.30
2017-07-11T20:56:07.763Z,21.30
2017-07-11T20:58:35.904Z,21.30
2017-07-11T21:01:03.977Z,21.30
2017-07-11T21:03:32.059Z,21.30
2017-07-11T21:06:00.118Z,21.20
2017-07-11T21:08:28.215Z,21.30
2017-07-11T21:10:56.287Z,21.30
2017-07-11T21:13:24.372Z,21.30
2017-07-11T21:15:52.489Z,21.30
2017-07-11T21:18:20.550Z,21.30
2017-07-11T21:20:48.622Z,21.30
2017-07-11T21:23:16.827Z,21.30
2017-07-11T21:25:44.931Z,21.30
2017-07-11T21:28:13.002Z,21.30
2017-07-11T21:30:41.080Z,21.30
2017-07-11T21:33:09.167Z,21.20
2017-07-11T21:35:37.327Z,21.10
2017-07-11T21:38:05.408Z,21.10
2017-07-11T21:40:34.424Z,21.10
2017-07-11T21:43:03.307Z,21.10
2017-07-11T21:45:31.384Z,21.10
2017-07-11T21:48:00.224Z,21.00
2017-07-11T21:50:28.365Z,21.00
2017-07-11T21:52:56.521Z,21.00
2017-07-11T21:55:25.455Z,21.00
2017-07-11T21:57:53.538Z,20.90
2017-07-11T22:00:21.600Z,21.00
2017-07-11T22:02:49.805Z,20.90
2017-07-11T22:05:17.884Z,20.80
2017-07-11T22:07:45.962Z,20.70
2017-07-11T22:10:14.177Z,20.70
2017-07-11T22:12:42.268Z,20.70
2017-07-11T22:15:10.344Z,20.70
2017-07-11T22:17:39.524Z,20.70
2017-07-11T22:20:07.641Z,20.60
2017-07-11T22:22:35.723Z,20.60
2017-07-11T22:25:03.825Z,20.60
2017-07-11T22:27:31.890Z,20.50
2017-07-11T22:30:00.745Z,20.40
2017-07-11T22:32:28.808Z,20.40
2017-07-11T22:34:56.960Z,20.40
2017-07-11T22:37:25.020Z,20.30
2017-07-11T22:39:53.104Z,20.30
2017-07-11T22:42:21.176Z,20.30
2017-07-11T22:44:49.258Z,20.30
2017-07-11T22:47:17.916Z,20.20
2017-07-11T22:49:46.020Z,20.20
2017-07-11T22:52:14.088Z,20.20
2017-07-11T22:54:42.161Z,20.10
2017-07-11T22:57:10.243Z,20.00
2017-07-11T22:59:38.315Z,20.00
2017-07-11T23:02:06.400Z,20.00
2017-07-11T23:04:34.481Z,19.90
2017-07-11T23:07:02.564Z,19.90
2017-07-11T23:09:30.863Z,19.80
2017-07-11T23:11:59.713Z,19.80
2017-07-11T23:14:27.799Z,19.80
2017-07-11T23:16:55.878Z,19.80
2017-07-11T23:19:23.947Z,19.80
2017-07-11T23:21:52.035Z,19.70
2017-07-11T23:24:20.872Z,19.70
2017-07-11T23:26:48.953Z,19.70
2017-07-11T23:29:17.224Z,19.70
2017-07-11T23:31:45.317Z,19.70
2017-07-11T23:34:13.409Z,19.70
2017-07-11T23:36:41.485Z,19.60
2017-07-11T23:39:09.558Z,19.60
2017-07-11T23:41:38.397Z,19.50
2017-07-11T23:44:06.471Z,19.50
2017-07-11T23:46:34.544Z,19.50
2017-07-11T23:49:02.626Z,19.40
2017-07-11T23:51:30.698Z,19.40
2017-07-11T23:53:59.168Z,19.40
2017-07-11T23:56:27.248Z,19.40
2017-07-11T23:58:55.323Z,19.40
